Terminal Aerodrome Forecast
Issued by NWS Jackson, MS

Home | Current Version | Previous Version | Text Only | Print | Product List | Glossary On
Versions: 1 2 3 4 5 6 7 8 9 10 11 12 13 14 15
067
FTUS44 KJAN 261918 AAB
TAFJAN
TAF AMD
KJAN 261918Z 2619/2718 35010KT P6SM SCT040 SCT250
     FM270000 01005KT P6SM FEW050 BKN250=

USA.gov is the U.S. government's official web portal to all federal, state and local government web resources and services.